createdAt,value
2019-04-10T00:01:26.308Z,26.53
2019-04-10T00:03:54.746Z,27.00
2019-04-10T00:06:23.747Z,28.80
2019-04-10T00:08:52.785Z,25.80
2019-04-10T00:11:21.390Z,23.90
2019-04-10T00:13:51.555Z,26.60
2019-04-10T00:16:22.492Z,31.80
2019-04-10T00:18:50.910Z,28.23
2019-04-10T00:21:19.469Z,31.13
2019-04-10T00:23:49.021Z,26.53
2019-04-10T00:26:18.144Z,25.50
2019-04-10T00:28:47.641Z,26.60
2019-04-10T00:31:16.298Z,26.63
2019-04-10T00:33:45.126Z,25.70
2019-04-10T00:36:14.170Z,29.97
2019-04-10T00:38:44.201Z,32.20
2019-04-10T00:41:12.841Z,27.50
2019-04-10T00:43:41.567Z,27.63
2019-04-10T00:46:10.304Z,27.83
2019-04-10T00:48:39.760Z,28.57
2019-04-10T00:51:08.857Z,26.83
2019-04-10T00:53:39.201Z,26.90
2019-04-10T00:56:08.411Z,28.97
2019-04-10T00:58:37.515Z,31.17
2019-04-10T01:01:06.209Z,26.20
2019-04-10T01:03:43.939Z,31.90
2019-04-10T01:06:13.652Z,26.03
2019-04-10T01:08:42.722Z,28.67
2019-04-10T01:11:11.387Z,28.73
2019-04-10T01:13:41.012Z,27.57
2019-04-10T01:16:09.714Z,32.37
2019-04-10T01:18:38.167Z,29.30
2019-04-10T01:21:08.200Z,29.73
2019-04-10T01:23:37.914Z,26.80
2019-04-10T01:26:07.234Z,28.73
2019-04-10T01:28:36.688Z,29.20
2019-04-10T01:31:05.319Z,25.87
2019-04-10T01:33:33.749Z,28.67
2019-04-10T01:36:02.770Z,30.13
2019-04-10T01:38:31.490Z,30.17
2019-04-10T01:40:59.936Z,32.03
2019-04-10T01:43:28.493Z,30.60
2019-04-10T01:45:57.907Z,30.73
2019-04-10T01:48:26.508Z,31.60
2019-04-10T01:50:54.973Z,32.50
2019-04-10T01:53:23.839Z,30.50
2019-04-10T01:55:53.406Z,29.30
2019-04-10T01:58:23.562Z,29.73
2019-04-10T02:01:08.141Z,29.73
2019-04-10T02:03:36.583Z,32.50
2019-04-10T02:06:05.197Z,29.10
2019-04-10T02:08:34.080Z,29.90
2019-04-10T02:11:04.796Z,30.77
2019-04-10T02:13:34.007Z,32.03
2019-04-10T02:16:04.127Z,30.03
2019-04-10T02:18:33.141Z,30.77
2019-04-10T02:21:01.772Z,28.90
2019-04-10T02:23:30.381Z,27.23
2019-04-10T02:25:59.129Z,28.80
2019-04-10T02:28:27.828Z,28.70
2019-04-10T02:30:56.745Z,26.93
2019-04-10T02:33:27.444Z,27.60
2019-04-10T02:35:57.158Z,27.10
2019-04-10T02:38:38.652Z,29.60
2019-04-10T02:40:57.426Z,26.50
2019-04-10T02:43:27.297Z,28.47
2019-04-10T02:45:57.564Z,30.37
2019-04-10T02:48:27.560Z,32.20
2019-04-10T02:50:57.621Z,28.57
2019-04-10T02:53:27.646Z,29.43
2019-04-10T02:55:58.023Z,29.00
2019-04-10T02:58:26.585Z,30.60
2019-04-10T03:00:56.326Z,26.07
2019-04-10T03:03:25.476Z,26.47
2019-04-10T03:05:54.338Z,29.03
2019-04-10T03:08:39.636Z,29.43
2019-04-10T03:10:59.011Z,28.47
2019-04-10T03:13:23.959Z,25.47
2019-04-10T03:15:53.527Z,27.82
2019-04-10T03:18:22.979Z,30.83
2019-04-10T03:20:51.626Z,28.00
2019-04-10T03:23:20.878Z,31.07
2019-04-10T03:25:49.690Z,29.33
2019-04-10T03:28:18.701Z,27.17
2019-04-10T03:30:49.370Z,27.87
2019-04-10T03:33:31.089Z,29.40
2019-04-10T03:35:58.977Z,26.47
2019-04-10T03:38:27.884Z,28.17
2019-04-10T03:40:56.585Z,30.57
2019-04-10T03:43:25.852Z,26.87
2019-04-10T03:45:55.134Z,28.87
2019-04-10T03:48:23.794Z,27.90
2019-04-10T03:50:52.260Z,28.13
2019-04-10T03:53:22.144Z,28.50
2019-04-10T03:55:52.111Z,28.97
2019-04-10T03:58:20.631Z,26.83
2019-04-10T04:00:50.545Z,28.60
2019-04-10T04:03:20.319Z,33.10
2019-04-10T04:05:49.139Z,26.83
2019-04-10T04:08:17.579Z,27.35
2019-04-10T04:10:46.140Z,27.00
2019-04-10T04:13:15.327Z,27.43
2019-04-10T04:15:44.400Z,28.97
2019-04-10T04:18:13.049Z,31.50
2019-04-10T04:20:41.555Z,25.43
2019-04-10T04:23:10.109Z,28.87
2019-04-10T04:25:38.746Z,29.10
2019-04-10T04:28:07.393Z,28.20
2019-04-10T04:30:36.045Z,26.13
2019-04-10T04:33:04.801Z,28.10
2019-04-10T04:35:34.516Z,30.53
2019-04-10T04:38:03.376Z,26.70
2019-04-10T04:40:31.877Z,33.80
2019-04-10T04:43:00.383Z,28.10
2019-04-10T04:45:29.926Z,28.20
2019-04-10T04:48:00.170Z,28.30
2019-04-10T04:50:29.277Z,29.10
2019-04-10T04:52:58.315Z,24.33
2019-04-10T04:55:27.242Z,25.90
2019-04-10T04:57:55.927Z,27.77
2019-04-10T05:00:25.685Z,27.03
2019-04-10T05:02:54.272Z,27.30
2019-04-10T05:05:23.004Z,26.87
2019-04-10T05:07:59.425Z,25.80
2019-04-10T05:10:23.497Z,24.83
2019-04-10T05:12:51.981Z,25.13
2019-04-10T05:15:20.652Z,26.33
2019-04-10T05:17:50.850Z,25.17
2019-04-10T05:20:19.332Z,28.03
2019-04-10T05:22:47.883Z,27.57
2019-04-10T05:25:16.798Z,26.83
2019-04-10T05:27:47.396Z,27.10
2019-04-10T05:30:16.407Z,31.90
2019-04-10T05:32:47.277Z,31.13
2019-04-10T05:35:17.268Z,25.30
2019-04-10T05:37:45.966Z,26.93
2019-04-10T05:40:15.255Z,27.40
2019-04-10T05:42:44.940Z,27.53
2019-04-10T05:45:13.511Z,25.10
2019-04-10T05:47:42.307Z,32.23
2019-04-10T05:50:11.005Z,25.33
2019-04-10T05:52:39.615Z,25.00
2019-04-10T05:55:08.509Z,25.43
2019-04-10T05:57:37.363Z,24.20
2019-04-10T06:00:10.418Z,23.53
2019-04-10T06:02:39.817Z,27.77
2019-04-10T06:05:09.680Z,25.23
2019-04-10T06:07:38.575Z,24.80
2019-04-10T06:10:10.031Z,26.27
2019-04-10T06:12:39.397Z,27.13
2019-04-10T06:15:07.983Z,25.30
2019-04-10T06:17:38.591Z,25.33
2019-04-10T06:20:09.175Z,25.17
2019-04-10T06:22:38.912Z,24.90
2019-04-10T06:25:10.604Z,25.33
2019-04-10T06:27:38.823Z,23.83
2019-04-10T06:30:09.946Z,30.63
2019-04-10T06:32:39.642Z,25.70
2019-04-10T06:35:08.921Z,26.57
2019-04-10T06:37:38.018Z,26.00
2019-04-10T06:40:15.084Z,26.57
2019-04-10T06:42:46.463Z,26.27
2019-04-10T06:45:07.625Z,25.83
2019-04-10T06:47:36.279Z,25.70
2019-04-10T06:50:08.585Z,26.80
2019-04-10T06:52:37.113Z,27.97
2019-04-10T06:55:06.182Z,28.17
2019-04-10T06:57:47.655Z,25.80
2019-04-10T07:00:12.197Z,27.90
2019-04-10T07:02:38.782Z,25.50
2019-04-10T07:05:10.224Z,28.10
2019-04-10T07:07:49.499Z,26.83
2019-04-10T07:10:20.613Z,27.90
2019-04-10T07:12:39.558Z,23.33
2019-04-10T07:15:08.517Z,28.07
2019-04-10T07:17:40.627Z,26.30
2019-04-10T07:20:07.439Z,25.37
2019-04-10T07:22:36.619Z,29.00
2019-04-10T07:25:09.277Z,30.20
2019-04-10T07:27:38.513Z,26.27
2019-04-10T07:30:07.761Z,26.43
2019-04-10T07:32:36.435Z,30.00
2019-04-10T07:35:06.745Z,30.83
2019-04-10T07:37:36.224Z,26.80
2019-04-10T07:40:07.952Z,28.70
2019-04-10T07:42:39.770Z,26.83
2019-04-10T07:45:08.015Z,28.23
2019-04-10T07:47:37.972Z,24.87
2019-04-10T07:50:08.952Z,33.93
2019-04-10T07:52:38.919Z,27.83
2019-04-10T07:55:08.513Z,34.03
2019-04-10T07:57:38.404Z,30.10
2019-04-10T08:00:09.096Z,27.63
2019-04-10T08:02:38.491Z,25.07
2019-04-10T08:05:08.186Z,29.63
2019-04-10T08:07:38.884Z,25.63
2019-04-10T08:10:07.982Z,24.20
2019-04-10T08:12:42.382Z,24.60
2019-04-10T08:15:07.539Z,26.13
2019-04-10T08:17:36.861Z,28.23
2019-04-10T08:20:05.921Z,27.00
2019-04-10T08:22:34.986Z,29.23
2019-04-10T08:25:06.422Z,24.23
2019-04-10T08:27:36.196Z,27.90
2019-04-10T08:30:07.393Z,28.47
2019-04-10T08:32:53.524Z,24.33
2019-04-10T08:35:11.298Z,24.30
2019-04-10T08:37:41.071Z,22.93
2019-04-10T08:40:11.418Z,30.00
2019-04-10T08:42:44.442Z,27.67
2019-04-10T08:45:11.441Z,25.27
2019-04-10T08:47:40.409Z,26.23
2019-04-10T08:50:11.788Z,22.37
2019-04-10T08:52:41.081Z,23.73
2019-04-10T08:55:18.248Z,28.23
2019-04-10T08:57:47.112Z,26.83
2019-04-10T09:00:16.496Z,26.20
2019-04-10T09:02:46.464Z,24.40
2019-04-10T09:05:15.405Z,37.20
2019-04-10T09:07:44.318Z,24.17
2019-04-10T09:10:14.277Z,26.00
2019-04-10T09:12:43.379Z,28.93
2019-04-10T09:15:12.098Z,29.27
2019-04-10T09:17:41.729Z,27.23
2019-04-10T09:20:10.863Z,24.40
2019-04-10T09:23:07.667Z,22.13
2019-04-10T09:25:13.465Z,19.97
2019-04-10T09:27:44.225Z,23.03
2019-04-10T09:30:14.332Z,20.17
2019-04-10T09:32:42.970Z,21.23
2019-04-10T09:35:12.131Z,24.10
2019-04-10T09:37:42.618Z,20.33
2019-04-10T09:40:11.969Z,27.23
2019-04-10T09:42:43.811Z,26.53
2019-04-10T09:45:13.531Z,21.13
2019-04-10T09:47:44.018Z,21.80
2019-04-10T09:50:17.268Z,27.77
2019-04-10T09:52:48.270Z,18.67
2019-04-10T09:55:17.997Z,23.40
2019-04-10T09:57:48.276Z,18.07
2019-04-10T10:00:21.130Z,19.10
2019-04-10T10:02:50.728Z,22.77
2019-04-10T10:05:20.282Z,23.87
2019-04-10T10:07:49.279Z,19.80
2019-04-10T10:10:18.655Z,23.10
2019-04-10T10:12:48.986Z,21.57
2019-04-10T10:15:18.890Z,18.07
2019-04-10T10:17:48.699Z,20.07
2019-04-10T10:20:17.537Z,19.37
2019-04-10T10:22:47.202Z,29.57
2019-04-10T10:25:17.289Z,21.73
2019-04-10T10:27:46.865Z,23.50
2019-04-10T10:30:17.542Z,24.27
2019-04-10T10:32:46.463Z,21.73
2019-04-10T10:35:15.026Z,23.30
2019-04-10T10:37:44.137Z,22.17
2019-04-10T10:40:12.917Z,23.10
2019-04-10T10:42:41.629Z,22.43
2019-04-10T10:45:10.665Z,21.83
2019-04-10T10:47:40.331Z,23.20
2019-04-10T10:50:09.189Z,24.80
2019-04-10T10:52:37.884Z,28.93
2019-04-10T10:55:07.610Z,23.23
2019-04-10T10:57:37.375Z,21.37
2019-04-10T11:00:08.390Z,24.67
2019-04-10T11:02:38.064Z,25.17
2019-04-10T11:05:07.194Z,29.47
2019-04-10T11:07:36.239Z,25.53
2019-04-10T11:10:06.811Z,33.60
2019-04-10T11:12:38.225Z,27.07
2019-04-10T11:15:07.812Z,26.57
2019-04-10T11:17:37.990Z,26.27
2019-04-10T11:20:08.380Z,24.93
2019-04-10T11:22:37.733Z,23.37
2019-04-10T11:25:06.469Z,19.97
2019-04-10T11:27:35.639Z,25.53
2019-04-10T11:30:10.374Z,25.00
2019-04-10T11:32:39.794Z,23.67
2019-04-10T11:35:08.699Z,21.73
2019-04-10T11:37:44.476Z,24.33
2019-04-10T11:40:08.757Z,21.40
2019-04-10T11:42:39.732Z,22.83
2019-04-10T11:45:08.200Z,21.63
2019-04-10T11:47:38.877Z,22.30
2019-04-10T11:50:10.319Z,23.83
2019-04-10T11:52:42.497Z,22.83
2019-04-10T11:57:42.719Z,22.63
2019-04-10T12:00:17.533Z,23.60
2019-04-10T12:02:47.314Z,22.63
2019-04-10T12:05:19.059Z,25.07
2019-04-10T12:12:45.914Z,29.30
2019-04-10T12:15:17.133Z,25.70
2019-04-10T12:17:46.502Z,26.83
2019-04-10T12:20:16.649Z,25.13
2019-04-10T12:22:46.202Z,23.37
2019-04-10T12:25:14.939Z,25.63
2019-04-10T12:27:43.654Z,28.77
2019-04-10T12:30:13.221Z,28.53
2019-04-10T12:32:42.988Z,30.23
2019-04-10T12:35:11.670Z,30.52
2019-04-10T12:37:41.240Z,28.43
2019-04-10T12:40:09.997Z,38.57
2019-04-10T12:42:38.732Z,24.70
2019-04-10T12:45:08.179Z,29.20
2019-04-10T12:47:37.678Z,30.77
2019-04-10T12:50:09.379Z,36.97
2019-04-10T12:52:38.764Z,27.40
2019-04-10T12:55:10.547Z,25.07
2019-04-10T12:57:39.212Z,22.60
2019-04-10T13:00:12.014Z,27.93
2019-04-10T13:02:40.833Z,30.10
2019-04-10T13:05:09.678Z,27.20
2019-04-10T13:07:38.404Z,28.00
2019-04-10T13:10:07.235Z,27.50
2019-04-10T13:12:35.774Z,23.83
2019-04-10T13:15:08.806Z,22.47
2019-04-10T13:17:38.524Z,25.90
2019-04-10T13:20:09.379Z,28.27
2019-04-10T13:22:38.125Z,25.40
2019-04-10T13:25:06.743Z,29.07
2019-04-10T13:27:35.381Z,27.27
2019-04-10T13:30:07.450Z,29.30
2019-04-10T13:32:36.130Z,25.27
2019-04-10T13:35:06.597Z,25.50
2019-04-10T13:37:35.853Z,25.57
2019-04-10T13:40:08.301Z,24.00
2019-04-10T13:42:37.156Z,27.93
2019-04-10T13:45:07.565Z,24.30
2019-04-10T13:47:36.332Z,27.50
2019-04-10T13:50:06.898Z,25.07
2019-04-10T13:52:38.418Z,28.53
2019-04-10T13:55:08.549Z,28.77
2019-04-10T13:57:37.728Z,29.60
2019-04-10T14:00:07.503Z,30.83
2019-04-10T14:02:37.539Z,26.10
2019-04-10T14:05:09.100Z,23.10
2019-04-10T14:07:37.673Z,29.47
2019-04-10T14:10:10.389Z,33.03
2019-04-10T14:12:39.149Z,24.83
2019-04-10T14:15:07.862Z,26.47
2019-04-10T14:17:37.505Z,28.53
2019-04-10T14:20:06.942Z,26.43
2019-04-10T14:22:37.963Z,24.80
2019-04-10T14:25:09.481Z,27.33
2019-04-10T14:27:38.942Z,29.00
2019-04-10T14:30:09.780Z,25.80
2019-04-10T14:32:39.640Z,30.60
2019-04-10T14:35:09.897Z,26.00
2019-04-10T14:37:38.527Z,26.33
2019-04-10T14:40:08.416Z,31.87
2019-04-10T14:42:38.260Z,23.33
2019-04-10T14:45:09.030Z,32.63
2019-04-10T14:47:37.883Z,27.43
2019-04-10T14:50:07.544Z,26.80
2019-04-10T14:52:37.165Z,25.37
2019-04-10T14:55:06.205Z,25.87
2019-04-10T14:57:35.086Z,28.50
2019-04-10T15:00:09.210Z,27.63
2019-04-10T15:02:39.645Z,25.67
2019-04-10T15:05:08.582Z,29.97
2019-04-10T15:07:37.366Z,44.37
2019-04-10T15:10:06.285Z,24.57
2019-04-10T15:12:34.843Z,25.43
2019-04-10T15:15:03.944Z,22.90
2019-04-10T15:17:32.888Z,24.03
2019-04-10T15:20:01.860Z,23.00
2019-04-10T15:22:31.667Z,34.80
2019-04-10T15:25:01.410Z,21.10
2019-04-10T15:27:30.231Z,25.60
2019-04-10T15:29:58.925Z,21.20
2019-04-10T15:32:27.547Z,21.40
2019-04-10T15:34:56.052Z,23.10
2019-04-10T15:37:24.908Z,21.70
2019-04-10T15:39:53.937Z,25.93
2019-04-10T15:42:23.771Z,21.27
2019-04-10T15:44:52.734Z,23.30
2019-04-10T15:47:23.141Z,21.60
2019-04-10T15:49:51.858Z,18.83
2019-04-10T15:52:22.790Z,19.30
2019-04-10T15:54:53.421Z,21.53
2019-04-10T15:57:22.771Z,19.83
2019-04-10T15:59:52.441Z,22.60
2019-04-10T16:02:21.694Z,17.93
2019-04-10T16:04:51.075Z,20.27
2019-04-10T16:07:22.461Z,19.27
2019-04-10T16:09:54.623Z,21.00
2019-04-10T16:12:26.965Z,22.93
2019-04-10T16:14:55.638Z,21.93
2019-04-10T16:17:44.620Z,18.10
2019-04-10T16:20:15.512Z,21.35
2019-04-10T16:23:02.127Z,23.67
2019-04-10T16:25:30.799Z,21.57
2019-04-10T16:28:00.599Z,18.63
2019-04-10T16:30:29.317Z,20.33
2019-04-10T16:32:58.689Z,23.33
2019-04-10T16:35:27.470Z,25.20
2019-04-10T16:37:56.228Z,26.03
2019-04-10T16:40:24.782Z,24.47
2019-04-10T16:42:53.329Z,28.40
2019-04-10T16:45:22.357Z,22.30
2019-04-10T16:47:52.499Z,21.67
2019-04-10T16:50:21.853Z,20.17
2019-04-10T16:52:51.453Z,24.53
2019-04-10T16:55:20.681Z,21.17
2019-04-10T16:57:49.478Z,22.50
2019-04-10T17:00:19.546Z,20.10
2019-04-10T17:02:48.617Z,23.17
2019-04-10T17:05:18.519Z,24.33
2019-04-10T17:07:47.533Z,21.30
2019-04-10T17:10:22.577Z,24.37
2019-04-10T17:12:48.396Z,25.67
2019-04-10T17:15:18.372Z,24.07
2019-04-10T17:17:47.088Z,21.20
2019-04-10T17:20:16.007Z,34.67
2019-04-10T17:22:48.597Z,36.80
2019-04-10T17:25:15.160Z,33.23
2019-04-10T17:27:43.883Z,27.97
2019-04-10T17:30:13.571Z,25.53
2019-04-10T17:32:42.651Z,24.03
2019-04-10T17:35:13.668Z,33.93
2019-04-10T17:37:42.611Z,21.13
2019-04-10T17:40:27.425Z,25.07
2019-04-10T17:42:44.374Z,27.60
2019-04-10T17:45:14.170Z,24.97
2019-04-10T17:47:45.158Z,23.40
2019-04-10T17:50:16.237Z,20.13
2019-04-10T17:52:45.286Z,21.60
2019-04-10T17:55:14.118Z,22.97
2019-04-10T17:57:45.667Z,25.13
2019-04-10T18:00:21.498Z,18.77
2019-04-10T18:02:50.900Z,24.03
2019-04-10T18:05:20.338Z,19.50
2019-04-10T18:07:49.216Z,21.20
2019-04-10T18:10:18.360Z,22.23
2019-04-10T18:12:48.108Z,20.63
2019-04-10T18:15:16.897Z,23.10
2019-04-10T18:17:45.477Z,24.33
2019-04-10T18:20:14.017Z,20.13
2019-04-10T18:22:42.847Z,21.33
2019-04-10T18:25:11.882Z,21.53
2019-04-10T18:27:40.745Z,22.23
2019-04-10T18:30:09.984Z,23.12
2019-04-10T18:32:40.021Z,21.33
2019-04-10T18:35:08.912Z,19.30
2019-04-10T18:37:37.688Z,23.83
2019-04-10T18:40:07.304Z,21.80
2019-04-10T18:42:38.527Z,25.40
2019-04-10T18:45:07.699Z,33.13
2019-04-10T18:47:38.056Z,24.57
2019-04-10T18:50:07.821Z,37.50
2019-04-10T18:52:37.336Z,25.17
2019-04-10T18:55:08.232Z,24.73
2019-04-10T18:57:36.955Z,22.97
2019-04-10T19:00:12.283Z,25.07
2019-04-10T19:02:48.826Z,26.33
2019-04-10T19:05:19.435Z,26.57
2019-04-10T19:07:48.311Z,26.17
2019-04-10T19:10:17.846Z,25.87
2019-04-10T19:12:46.549Z,22.40
2019-04-10T19:15:15.177Z,19.10
2019-04-10T19:17:43.843Z,20.13
2019-04-10T19:20:14.013Z,22.23
2019-04-10T19:22:42.699Z,22.87
2019-04-10T19:25:11.350Z,20.57
2019-04-10T19:27:40.247Z,23.70
2019-04-10T19:30:10.986Z,21.60
2019-04-10T19:32:41.563Z,20.40
2019-04-10T19:35:10.863Z,17.80
2019-04-10T19:37:40.735Z,20.80
2019-04-10T19:40:11.161Z,31.93
2019-04-10T19:42:39.871Z,19.03
2019-04-10T19:45:09.763Z,20.37
2019-04-10T19:47:38.933Z,18.27
2019-04-10T19:50:08.756Z,19.03
2019-04-10T19:52:38.372Z,18.33
2019-04-10T19:55:11.410Z,18.80
2019-04-10T19:57:41.512Z,19.57
2019-04-10T20:00:14.611Z,20.60
2019-04-10T20:02:43.604Z,20.03
2019-04-10T20:05:12.879Z,19.23
2019-04-10T20:07:41.472Z,16.50
2019-04-10T20:10:10.898Z,19.93
2019-04-10T20:12:40.443Z,18.53
2019-04-10T20:15:10.040Z,16.37
2019-04-10T20:17:39.852Z,16.93
2019-04-10T20:20:10.916Z,18.40
2019-04-10T20:22:39.682Z,16.33
2019-04-10T20:25:10.371Z,14.73
2019-04-10T20:27:40.303Z,16.03
2019-04-10T20:30:10.158Z,20.67
2019-04-10T20:32:38.672Z,15.30
2019-04-10T20:35:07.801Z,15.27
2019-04-10T20:37:36.642Z,18.40
2019-04-10T20:40:06.150Z,15.17
2019-04-10T20:42:34.634Z,15.70
2019-04-10T20:45:03.630Z,12.53
2019-04-10T20:47:33.037Z,13.37
2019-04-10T20:50:01.974Z,17.27
2019-04-10T20:52:30.630Z,12.60
2019-04-10T20:54:59.544Z,12.80
2019-04-10T20:57:28.114Z,15.37
2019-04-10T20:59:57.355Z,15.87
2019-04-10T21:02:26.441Z,18.03
2019-04-10T21:05:01.446Z,16.80
2019-04-10T21:07:25.543Z,15.10
2019-04-10T21:09:54.465Z,14.37
2019-04-10T21:12:23.809Z,16.13
2019-04-10T21:14:52.615Z,17.33
2019-04-10T21:17:21.163Z,15.00
2019-04-10T21:19:51.610Z,18.27
2019-04-10T21:22:20.391Z,22.23
2019-04-10T21:24:49.907Z,21.30
2019-04-10T21:27:18.621Z,17.67
2019-04-10T21:30:01.843Z,13.17
2019-04-10T21:32:32.411Z,17.63
2019-04-10T21:35:03.894Z,20.67
2019-04-10T21:37:32.765Z,16.30
2019-04-10T21:40:02.608Z,19.07
2019-04-10T21:42:31.594Z,14.17
2019-04-10T21:45:00.154Z,22.73
2019-04-10T21:47:29.908Z,14.03
2019-04-10T21:49:58.549Z,15.97
2019-04-10T21:52:27.215Z,22.43
2019-04-10T21:55:00.046Z,14.77
2019-04-10T21:57:26.485Z,16.13
2019-04-10T21:59:56.033Z,13.70
2019-04-10T22:02:24.813Z,13.27
2019-04-10T22:04:53.499Z,12.70
2019-04-10T22:07:32.390Z,18.13
2019-04-10T22:10:05.655Z,14.33
2019-04-10T22:12:39.579Z,12.97
2019-04-10T22:15:08.613Z,14.77
2019-04-10T22:17:38.363Z,14.13
2019-04-10T22:20:07.587Z,12.43
2019-04-10T22:22:37.113Z,12.77
2019-04-10T22:25:07.440Z,13.37
2019-04-10T22:27:36.017Z,13.37
2019-04-10T22:30:06.755Z,18.53
2019-04-10T22:32:35.424Z,18.30
2019-04-10T22:35:05.574Z,11.77
2019-04-10T22:37:35.621Z,13.10
2019-04-10T22:40:06.577Z,12.73
2019-04-10T22:42:42.533Z,12.80
2019-04-10T22:45:27.397Z,12.40
2019-04-10T22:47:56.404Z,15.40
2019-04-10T22:50:25.041Z,11.67
2019-04-10T22:52:54.874Z,10.90
2019-04-10T22:55:23.931Z,12.00
2019-04-10T22:57:52.714Z,13.77
2019-04-10T23:00:26.005Z,12.80
2019-04-10T23:02:55.050Z,9.70
2019-04-10T23:05:24.590Z,11.57
2019-04-10T23:07:53.477Z,11.77
2019-04-10T23:10:22.160Z,16.37
2019-04-10T23:12:59.357Z,11.10
2019-04-10T23:15:21.380Z,11.00
2019-04-10T23:17:50.748Z,11.33
2019-04-10T23:20:19.582Z,11.67
2019-04-10T23:22:48.728Z,12.33
2019-04-10T23:25:19.070Z,11.30
2019-04-10T23:27:53.468Z,12.43
2019-04-10T23:30:21.687Z,9.30
2019-04-10T23:32:51.274Z,11.70
2019-04-10T23:35:21.176Z,12.60
2019-04-10T23:37:50.989Z,9.43
2019-04-10T23:40:21.030Z,11.17
2019-04-10T23:43:01.281Z,10.30
2019-04-10T23:45:19.793Z,9.77
2019-04-10T23:47:48.691Z,8.30
2019-04-10T23:50:18.444Z,12.23
2019-04-10T23:52:47.878Z,10.30
2019-04-10T23:55:17.639Z,11.80
2019-04-10T23:57:46.526Z,9.43
